createdAt,value
2022-10-09T00:01:31.258Z,12.11
2022-10-09T00:04:18.565Z,12.06
2022-10-09T00:07:05.578Z,12.03
2022-10-09T00:09:52.574Z,12.01
2022-10-09T00:12:39.449Z,11.97
2022-10-09T00:15:26.709Z,11.94
2022-10-09T00:18:16.056Z,11.93
2022-10-09T00:21:04.376Z,11.89
2022-10-09T00:23:53.481Z,11.86
2022-10-09T00:26:40.621Z,11.80
2022-10-09T00:29:27.218Z,11.74
2022-10-09T00:32:14.288Z,11.71
2022-10-09T00:35:01.132Z,11.69
2022-10-09T00:37:48.856Z,11.68
2022-10-09T00:40:37.514Z,11.60
2022-10-09T00:43:43.871Z,11.54
2022-10-09T00:46:45.630Z,11.53
2022-10-09T00:49:34.618Z,11.50
2022-10-09T00:52:23.957Z,11.43
2022-10-09T00:55:14.385Z,11.36
2022-10-09T00:58:02.432Z,11.32
2022-10-09T01:01:57.354Z,11.31
2022-10-09T01:04:33.075Z,11.31
2022-10-09T01:07:43.170Z,11.28
2022-10-09T01:10:36.380Z,11.27
2022-10-09T01:14:00.686Z,11.24
2022-10-09T01:17:00.867Z,11.18
2022-10-09T01:20:11.196Z,11.13
2022-10-09T01:23:22.964Z,11.03
2022-10-09T01:26:32.504Z,10.96
2022-10-09T01:29:21.464Z,10.94
2022-10-09T01:32:11.384Z,10.90
2022-10-09T01:34:59.827Z,10.85
2022-10-09T01:37:47.845Z,10.78
2022-10-09T01:40:36.372Z,10.69
2022-10-09T01:43:23.190Z,10.63
2022-10-09T01:46:25.604Z,10.58
2022-10-09T01:49:38.523Z,10.54
2022-10-09T01:52:48.830Z,10.49
2022-10-09T01:55:51.696Z,10.43
2022-10-09T01:58:51.415Z,10.38
2022-10-09T02:01:39.662Z,10.33
2022-10-09T02:04:29.435Z,10.24
2022-10-09T02:07:17.704Z,10.16
2022-10-09T02:10:06.132Z,10.11
2022-10-09T02:12:59.082Z,10.09
2022-10-09T02:15:56.700Z,10.05
2022-10-09T02:18:46.380Z,9.99
2022-10-09T02:21:44.045Z,9.94
2022-10-09T02:24:34.086Z,9.87
2022-10-09T02:27:22.128Z,9.83
2022-10-09T02:30:10.936Z,9.78
2022-10-09T02:32:57.853Z,9.67
2022-10-09T02:35:44.843Z,9.60
2022-10-09T02:38:31.512Z,9.56
2022-10-09T02:41:18.599Z,9.50
2022-10-09T02:44:06.215Z,9.48
2022-10-09T02:46:53.388Z,9.47
2022-10-09T02:49:40.357Z,9.45
2022-10-09T02:52:27.218Z,9.39
2022-10-09T02:55:14.103Z,9.37
2022-10-09T02:58:00.982Z,9.32
2022-10-09T03:00:51.381Z,9.29
2022-10-09T03:03:38.231Z,9.26
2022-10-09T03:06:28.072Z,9.21
2022-10-09T03:09:14.784Z,9.16
2022-10-09T03:12:01.408Z,9.04
2022-10-09T03:14:48.035Z,8.99
2022-10-09T03:17:34.791Z,8.95
2022-10-09T03:20:21.711Z,8.94
2022-10-09T03:23:08.453Z,8.91
2022-10-09T03:26:00.153Z,8.89
2022-10-09T03:28:48.938Z,8.84
2022-10-09T03:31:53.068Z,8.83
2022-10-09T03:34:40.005Z,8.81
2022-10-09T03:37:26.410Z,8.78
2022-10-09T03:40:13.104Z,8.76
2022-10-09T03:43:00.206Z,8.73
2022-10-09T03:45:47.068Z,8.72
2022-10-09T03:48:35.209Z,8.70
2022-10-09T03:51:22.160Z,8.66
2022-10-09T03:54:09.047Z,8.61
2022-10-09T03:56:56.093Z,8.56
2022-10-09T03:59:42.947Z,8.49
2022-10-09T04:02:32.372Z,8.43
2022-10-09T04:05:19.441Z,8.40
2022-10-09T04:08:06.104Z,8.37
2022-10-09T04:11:00.067Z,8.35
2022-10-09T04:13:47.072Z,8.35
2022-10-09T04:16:34.072Z,8.30
2022-10-09T04:19:21.372Z,8.28
2022-10-09T04:22:08.131Z,8.26
2022-10-09T04:24:55.189Z,8.25
2022-10-09T04:27:42.068Z,8.24
2022-10-09T04:30:28.777Z,8.20
2022-10-09T04:33:16.161Z,8.18
2022-10-09T04:36:03.814Z,8.13
2022-10-09T04:38:50.284Z,8.09
2022-10-09T04:41:38.419Z,8.04
2022-10-09T04:44:25.457Z,8.01
2022-10-09T04:47:12.284Z,7.96
2022-10-09T04:49:59.035Z,7.94
2022-10-09T04:52:46.710Z,7.91
2022-10-09T04:55:38.936Z,7.92
2022-10-09T04:58:25.933Z,7.93
2022-10-09T05:01:19.543Z,7.94
2022-10-09T05:04:06.487Z,7.97
2022-10-09T05:06:53.178Z,7.98
2022-10-09T05:09:40.046Z,8.03
2022-10-09T05:12:27.252Z,8.08
2022-10-09T05:15:14.445Z,8.11
2022-10-09T05:18:02.144Z,8.17
2022-10-09T05:20:48.763Z,8.24
2022-10-09T05:23:35.813Z,8.28
2022-10-09T05:26:25.282Z,8.35
2022-10-09T05:29:11.971Z,8.39
2022-10-09T05:31:58.918Z,8.42
2022-10-09T05:34:45.578Z,8.47
2022-10-09T05:37:32.429Z,8.51
2022-10-09T05:40:19.151Z,8.54
2022-10-09T05:43:05.961Z,8.57
2022-10-09T05:45:53.293Z,8.62
2022-10-09T05:48:42.414Z,8.67
2022-10-09T05:51:32.247Z,8.72
2022-10-09T05:54:19.176Z,8.73
2022-10-09T05:57:06.050Z,8.75
2022-10-09T05:59:53.051Z,8.76
2022-10-09T06:02:39.899Z,8.81
2022-10-09T06:05:26.760Z,8.89
2022-10-09T06:08:13.643Z,8.99
2022-10-09T06:11:09.694Z,9.06
2022-10-09T06:13:56.427Z,9.19
2022-10-09T06:16:44.652Z,9.28
2022-10-09T06:19:31.526Z,9.37
2022-10-09T06:22:18.741Z,9.40
2022-10-09T06:25:05.631Z,9.46
2022-10-09T06:27:52.691Z,9.46
2022-10-09T06:30:39.429Z,9.51
2022-10-09T06:33:29.747Z,9.58
2022-10-09T06:36:27.740Z,9.64
2022-10-09T06:39:15.097Z,9.74
2022-10-09T06:42:01.988Z,9.81
2022-10-09T06:44:50.804Z,9.86
2022-10-09T06:47:37.806Z,9.88
2022-10-09T06:50:24.975Z,9.92
2022-10-09T06:53:11.854Z,10.04
2022-10-09T06:55:59.277Z,10.19
2022-10-09T06:58:46.461Z,10.33
2022-10-09T07:01:34.383Z,10.45
2022-10-09T07:04:21.795Z,10.53
2022-10-09T07:07:08.727Z,10.68
2022-10-09T07:09:55.108Z,10.87
2022-10-09T07:12:42.244Z,10.88
2022-10-09T07:15:28.961Z,10.86
2022-10-09T07:18:16.815Z,10.93
2022-10-09T07:21:09.284Z,-16.69
2022-10-09T07:23:56.250Z,11.47
2022-10-09T07:26:48.308Z,11.74
2022-10-09T07:29:35.553Z,11.81
2022-10-09T07:32:22.555Z,11.79
2022-10-09T07:35:10.213Z,11.80
2022-10-09T07:37:56.837Z,11.80
2022-10-09T07:40:43.880Z,11.85
2022-10-09T07:43:30.947Z,11.93
2022-10-09T07:46:20.782Z,11.93
2022-10-09T07:49:07.684Z,11.91
2022-10-09T07:51:55.105Z,11.99
2022-10-09T07:54:41.505Z,12.74
2022-10-09T07:57:29.377Z,14.35
2022-10-09T08:00:16.153Z,14.68
2022-10-09T08:03:02.968Z,14.30
2022-10-09T08:05:56.411Z,13.97
2022-10-09T08:08:44.856Z,14.65
2022-10-09T08:11:32.466Z,15.59
2022-10-09T08:14:19.852Z,16.71
2022-10-09T08:17:06.516Z,17.44
2022-10-09T08:19:53.522Z,17.96
2022-10-09T08:22:40.393Z,17.68
2022-10-09T08:25:27.449Z,18.15
2022-10-09T08:28:14.266Z,18.74
2022-10-09T08:31:10.510Z,19.29
2022-10-09T08:33:59.369Z,19.65
2022-10-09T08:36:46.471Z,19.35
2022-10-09T08:39:33.371Z,19.13
2022-10-09T08:42:53.341Z,19.40
2022-10-09T08:45:42.731Z,20.07
2022-10-09T08:48:29.967Z,20.47
2022-10-09T08:51:32.983Z,20.91
2022-10-09T08:54:29.809Z,21.33
2022-10-09T08:57:17.694Z,21.24
2022-10-09T09:00:13.885Z,21.13
2022-10-09T09:03:31.433Z,21.01
2022-10-09T09:06:38.163Z,20.29
2022-10-09T09:09:52.517Z,19.68
2022-10-09T09:12:55.631Z,20.13
2022-10-09T09:15:48.004Z,20.79
2022-10-09T09:18:50.308Z,20.74
2022-10-09T09:21:53.040Z,20.91
2022-10-09T09:24:46.980Z,21.29
2022-10-09T09:27:36.958Z,20.83
2022-10-09T09:30:26.262Z,20.64
2022-10-09T09:33:25.512Z,20.49
2022-10-09T09:36:24.822Z,20.44
2022-10-09T09:42:22.186Z,21.56
2022-10-09T09:45:18.111Z,22.01
2022-10-09T09:48:15.190Z,22.43
2022-10-09T09:51:27.025Z,22.67
2022-10-09T09:54:19.179Z,22.38
2022-10-09T09:57:14.803Z,22.66
2022-10-09T10:00:10.154Z,22.89
2022-10-09T10:03:11.335Z,22.62
2022-10-09T10:05:58.760Z,22.31
2022-10-09T10:08:46.021Z,22.13
2022-10-09T10:11:35.923Z,22.36
2022-10-09T10:14:23.278Z,22.25
2022-10-09T10:17:26.998Z,22.55
2022-10-09T10:20:17.042Z,22.47
2022-10-09T10:23:04.026Z,21.90
2022-10-09T10:25:54.339Z,21.67
2022-10-09T10:28:52.278Z,21.51
2022-10-09T10:32:04.868Z,21.54
2022-10-09T10:35:03.776Z,21.13
2022-10-09T10:38:07.432Z,21.34
2022-10-09T10:41:10.034Z,21.79
2022-10-09T10:44:20.305Z,22.11
2022-10-09T10:47:14.997Z,22.30
2022-10-09T10:50:01.809Z,22.37
2022-10-09T10:53:28.794Z,22.36
2022-10-09T10:56:44.979Z,22.43
2022-10-09T11:00:06.009Z,22.13
2022-10-09T11:03:23.930Z,21.51
2022-10-09T11:06:25.211Z,21.56
2022-10-09T11:09:50.840Z,21.98
2022-10-09T11:13:03.674Z,22.43
2022-10-09T11:16:15.205Z,22.75
2022-10-09T11:19:15.337Z,23.01
2022-10-09T11:22:17.093Z,23.17
2022-10-09T11:25:50.793Z,23.38
2022-10-09T11:28:45.918Z,23.03
2022-10-09T11:31:40.026Z,22.60
2022-10-09T11:34:32.600Z,22.23
2022-10-09T11:37:24.763Z,21.79
2022-10-09T11:40:22.868Z,21.70
2022-10-09T11:43:18.411Z,21.87
2022-10-09T11:46:18.766Z,22.19
2022-10-09T11:49:13.853Z,22.69
2022-10-09T11:52:17.489Z,23.09
2022-10-09T11:55:29.252Z,23.19
2022-10-09T11:58:18.625Z,22.79
2022-10-09T12:01:19.400Z,22.28
2022-10-09T12:04:37.407Z,21.73
2022-10-09T12:07:35.097Z,21.16
2022-10-09T12:10:34.742Z,20.98
2022-10-09T12:13:42.583Z,21.17
2022-10-09T12:16:31.778Z,21.46
2022-10-09T12:19:24.295Z,21.79
2022-10-09T12:22:22.622Z,21.98
2022-10-09T12:25:41.419Z,22.14
2022-10-09T12:29:02.041Z,22.54
2022-10-09T12:31:51.442Z,22.86
2022-10-09T12:34:46.393Z,23.07
2022-10-09T12:37:37.021Z,22.83
2022-10-09T12:40:26.993Z,22.41
2022-10-09T12:43:18.483Z,21.97
2022-10-09T12:46:05.510Z,21.40
2022-10-09T12:48:53.200Z,21.17
2022-10-09T12:51:40.147Z,21.30
2022-10-09T12:54:30.052Z,21.36
2022-10-09T12:57:17.712Z,21.53
2022-10-09T13:18:58.942Z,23.15
2022-10-09T13:21:45.678Z,23.12
2022-10-09T13:24:33.040Z,22.94
2022-10-09T13:27:22.716Z,23.01
2022-10-09T13:30:11.531Z,23.00
2022-10-09T13:32:59.023Z,22.88
2022-10-09T13:35:45.926Z,22.78
2022-10-09T13:38:34.959Z,22.66
2022-10-09T13:41:25.009Z,22.76
2022-10-09T13:44:12.013Z,22.84
2022-10-09T13:46:59.435Z,22.75
2022-10-09T13:49:46.148Z,22.37
2022-10-09T13:52:33.195Z,22.01
2022-10-09T13:55:19.839Z,21.92
2022-10-09T13:58:06.707Z,21.77
2022-10-09T14:00:53.427Z,21.85
2022-10-09T14:03:40.909Z,21.96
2022-10-09T14:06:28.225Z,21.83
2022-10-09T14:09:15.028Z,21.75
2022-10-09T14:12:02.294Z,21.68
2022-10-09T14:14:48.864Z,21.61
2022-10-09T14:17:35.521Z,21.47
2022-10-09T14:20:25.276Z,21.28
2022-10-09T14:23:14.308Z,21.12
2022-10-09T14:26:05.669Z,20.95
2022-10-09T14:28:53.328Z,20.86
2022-10-09T14:31:40.871Z,20.70
2022-10-09T14:34:27.913Z,20.50
2022-10-09T14:37:29.805Z,20.34
2022-10-09T14:40:23.266Z,20.19
2022-10-09T14:43:11.427Z,20.03
2022-10-09T14:46:05.381Z,19.73
2022-10-09T14:48:56.492Z,19.48
2022-10-09T14:51:43.731Z,19.19
2022-10-09T14:54:32.628Z,18.89
2022-10-09T14:57:20.211Z,18.59
2022-10-09T15:00:08.414Z,18.41
2022-10-09T15:02:57.606Z,18.15
2022-10-09T15:05:46.882Z,17.89
2022-10-09T15:08:35.843Z,17.66
2022-10-09T15:11:23.178Z,17.32
2022-10-09T15:14:10.714Z,17.00
2022-10-09T15:16:58.124Z,16.65
2022-10-09T15:19:45.074Z,16.33
2022-10-09T15:22:32.835Z,16.09
2022-10-09T15:25:19.443Z,15.83
2022-10-09T15:28:06.888Z,15.60
2022-10-09T15:30:57.594Z,15.36
2022-10-09T15:33:44.597Z,15.19
2022-10-09T15:36:35.802Z,14.98
2022-10-09T15:39:24.160Z,14.72
2022-10-09T15:42:11.403Z,14.50
2022-10-09T15:44:58.600Z,14.22
2022-10-09T15:47:52.470Z,13.98
2022-10-09T15:50:43.701Z,13.78
2022-10-09T15:53:30.954Z,13.56
2022-10-09T15:56:21.550Z,13.35
2022-10-09T15:59:16.955Z,13.19
2022-10-09T16:02:04.198Z,13.01
2022-10-09T16:04:51.036Z,12.78
2022-10-09T16:07:39.228Z,12.55
2022-10-09T16:10:25.997Z,12.38
2022-10-09T16:13:12.843Z,12.26
2022-10-09T16:16:00.225Z,12.06
2022-10-09T16:18:48.166Z,11.86
2022-10-09T16:21:34.899Z,11.68
2022-10-09T16:24:21.467Z,11.56
2022-10-09T16:27:08.135Z,11.46
2022-10-09T16:29:55.452Z,11.32
2022-10-09T16:32:42.587Z,11.18
2022-10-09T16:35:29.475Z,11.03
2022-10-09T16:38:19.288Z,10.85
2022-10-09T16:41:15.298Z,10.75
2022-10-09T16:44:02.908Z,10.59
2022-10-09T16:46:49.801Z,10.40
2022-10-09T16:49:37.323Z,10.25
2022-10-09T16:52:24.148Z,10.09
2022-10-09T16:55:11.405Z,9.95
2022-10-09T16:57:59.266Z,9.77
2022-10-09T17:00:46.837Z,9.61
2022-10-09T17:03:33.849Z,9.48
2022-10-09T17:06:23.525Z,9.33
2022-10-09T17:09:14.214Z,9.16
2022-10-09T17:12:02.924Z,9.05
2022-10-09T17:14:50.491Z,8.94
2022-10-09T17:17:38.550Z,8.85
2022-10-09T17:20:28.137Z,8.80
2022-10-09T17:23:15.533Z,8.70
2022-10-09T17:26:07.190Z,8.64
2022-10-09T17:28:56.913Z,8.54
2022-10-09T17:31:44.026Z,8.45
2022-10-09T17:34:31.270Z,8.40
2022-10-09T17:37:18.302Z,8.33
2022-10-09T17:40:05.736Z,8.26
2022-10-09T17:42:53.067Z,8.19
2022-10-09T17:45:42.659Z,8.12
2022-10-09T17:48:29.929Z,8.06
2022-10-09T17:51:35.438Z,8.00
2022-10-09T17:54:22.531Z,7.89
2022-10-09T17:57:12.521Z,7.83
2022-10-09T17:59:59.237Z,7.73
2022-10-09T18:02:46.848Z,7.65
2022-10-09T18:05:41.333Z,7.61
2022-10-09T18:08:31.285Z,7.56
2022-10-09T18:11:17.974Z,7.46
2022-10-09T18:14:04.571Z,7.37
2022-10-09T18:16:51.118Z,7.31
2022-10-09T18:19:37.790Z,7.26
2022-10-09T18:22:25.451Z,7.21
2022-10-09T18:25:12.151Z,7.18
2022-10-09T18:28:00.029Z,7.13
2022-10-09T18:30:47.259Z,7.06
2022-10-09T18:33:34.834Z,7.02
2022-10-09T18:36:24.278Z,6.96
2022-10-09T18:39:14.758Z,6.91
2022-10-09T18:42:04.023Z,6.82
2022-10-09T18:44:51.321Z,6.76
2022-10-09T18:47:38.395Z,6.67
2022-10-09T18:50:25.403Z,6.62
2022-10-09T18:53:12.747Z,6.61
2022-10-09T18:56:21.244Z,6.56
2022-10-09T18:59:12.388Z,6.54
2022-10-09T19:01:59.206Z,6.51
2022-10-09T19:04:48.181Z,6.50
2022-10-09T19:07:35.093Z,6.45
2022-10-09T19:10:22.236Z,6.33
2022-10-09T19:13:09.303Z,6.27
2022-10-09T19:16:04.631Z,6.14
2022-10-09T19:18:53.477Z,6.08
2022-10-09T19:21:44.031Z,5.93
2022-10-09T19:24:34.329Z,5.82
2022-10-09T19:27:25.773Z,5.76
2022-10-09T19:30:15.264Z,5.66
2022-10-09T19:33:02.022Z,5.63
2022-10-09T19:35:55.376Z,5.63
2022-10-09T19:38:46.101Z,5.55
2022-10-09T19:41:33.436Z,-24.97
2022-10-09T19:44:20.082Z,5.35
2022-10-09T19:47:07.467Z,5.35
2022-10-09T19:49:55.667Z,5.36
2022-10-09T19:52:42.586Z,5.33
2022-10-09T19:55:32.682Z,5.32
2022-10-09T19:58:19.824Z,5.32
2022-10-09T20:01:07.065Z,5.31
2022-10-09T20:04:00.464Z,5.24
2022-10-09T20:06:48.044Z,5.20
2022-10-09T20:09:35.483Z,5.20
2022-10-09T20:12:23.227Z,5.14
2022-10-09T20:15:10.547Z,5.10
2022-10-09T20:17:57.755Z,5.04
2022-10-09T20:20:48.795Z,5.02
2022-10-09T20:23:35.849Z,4.98
2022-10-09T20:26:22.521Z,4.98
2022-10-09T20:29:10.135Z,4.97
2022-10-09T20:31:56.763Z,4.93
2022-10-09T20:34:43.848Z,4.87
2022-10-09T20:37:30.646Z,4.84
2022-10-09T20:40:17.812Z,4.77
2022-10-09T20:43:04.635Z,4.76
2022-10-09T20:45:51.363Z,4.75
2022-10-09T20:48:38.110Z,4.72
2022-10-09T20:51:26.196Z,4.66
2022-10-09T20:54:18.226Z,4.64
2022-10-09T20:57:05.539Z,4.62
2022-10-09T20:59:52.332Z,4.62
2022-10-09T21:02:39.303Z,4.62
2022-10-09T21:05:26.093Z,4.58
2022-10-09T21:08:12.801Z,4.55
2022-10-09T21:11:00.662Z,4.51
2022-10-09T21:13:48.839Z,4.48
2022-10-09T21:16:35.701Z,4.48
2022-10-09T21:19:22.477Z,4.44
2022-10-09T21:22:09.317Z,4.41
2022-10-09T21:24:55.973Z,4.36
2022-10-09T21:27:42.535Z,4.32
2022-10-09T21:30:29.481Z,4.25
2022-10-09T21:33:16.950Z,4.27
2022-10-09T21:36:10.449Z,4.27
2022-10-09T21:38:57.539Z,4.22
2022-10-09T21:41:44.563Z,4.20
2022-10-09T21:44:31.180Z,4.14
2022-10-09T21:47:21.321Z,4.07
2022-10-09T21:50:10.009Z,4.04
2022-10-09T21:52:57.770Z,3.99
2022-10-09T21:55:44.450Z,3.94
2022-10-09T21:58:31.213Z,3.90
2022-10-09T22:01:18.243Z,3.88
2022-10-09T22:04:05.068Z,3.90
2022-10-09T22:06:51.465Z,3.90
2022-10-09T22:09:38.360Z,3.91
2022-10-09T22:12:25.139Z,3.85
2022-10-09T22:15:12.068Z,3.85
2022-10-09T22:17:58.775Z,3.88
2022-10-09T22:20:49.139Z,3.89
2022-10-09T22:23:37.783Z,3.88
2022-10-09T22:26:24.292Z,3.85
2022-10-09T22:29:10.967Z,3.79
2022-10-09T22:31:57.595Z,3.67
2022-10-09T22:34:44.476Z,3.65
2022-10-09T22:37:31.555Z,3.67
2022-10-09T22:40:19.035Z,3.67
2022-10-09T22:43:06.226Z,3.68
2022-10-09T22:45:52.784Z,3.64
2022-10-09T22:48:39.917Z,3.63
2022-10-09T22:51:28.790Z,3.64
2022-10-09T22:54:15.617Z,3.62
2022-10-09T22:57:02.627Z,3.57
2022-10-09T22:59:49.289Z,3.55
2022-10-09T23:02:36.064Z,3.44
2022-10-09T23:05:24.204Z,3.42
2022-10-09T23:08:10.955Z,3.44
2022-10-09T23:10:57.429Z,3.44
2022-10-09T23:13:45.294Z,3.41
2022-10-09T23:16:33.023Z,3.40
2022-10-09T23:19:20.108Z,3.37
2022-10-09T23:22:06.463Z,3.34
2022-10-09T23:24:53.180Z,3.28
2022-10-09T23:27:39.864Z,3.26
2022-10-09T23:30:26.729Z,3.26
2022-10-09T23:33:13.729Z,3.22
2022-10-09T23:36:04.135Z,3.20
2022-10-09T23:38:52.316Z,3.15
2022-10-09T23:41:39.305Z,3.17
2022-10-09T23:44:26.283Z,3.16
2022-10-09T23:47:13.079Z,3.08
2022-10-09T23:49:59.806Z,3.08
2022-10-09T23:52:46.908Z,3.03
2022-10-09T23:55:33.705Z,3.02
2022-10-09T23:58:21.239Z,3.07
